createdAt,value
2024-03-14T00:04:35.991Z,7.30
2024-03-14T00:09:29.518Z,7.77
2024-03-14T00:14:22.956Z,5.80
2024-03-14T00:19:16.741Z,5.60
2024-03-14T00:24:10.314Z,6.07
2024-03-14T00:29:02.771Z,8.50
2024-03-14T00:33:56.864Z,7.20
2024-03-14T00:38:49.194Z,6.30
2024-03-14T00:43:41.584Z,7.03
2024-03-14T00:48:34.185Z,6.20
2024-03-14T00:53:26.943Z,7.73
2024-03-14T00:58:18.969Z,7.13
2024-03-14T01:03:11.503Z,7.07
2024-03-14T01:08:03.791Z,6.67
2024-03-14T01:12:55.885Z,6.77
2024-03-14T01:17:47.966Z,7.20
2024-03-14T01:22:40.289Z,6.40
2024-03-14T01:27:32.458Z,8.67
2024-03-14T01:32:25.970Z,6.13
2024-03-14T01:37:18.015Z,7.83
2024-03-14T01:42:13.444Z,6.13
2024-03-14T01:47:07.165Z,6.87
2024-03-14T01:51:59.222Z,5.50
2024-03-14T01:56:59.636Z,6.63
2024-03-14T02:01:52.116Z,6.47
2024-03-14T02:07:47.841Z,6.00
2024-03-14T02:12:42.800Z,6.07
2024-03-14T02:17:35.882Z,6.63
2024-03-14T02:22:31.003Z,5.43
2024-03-14T02:27:26.430Z,6.83
2024-03-14T02:32:19.536Z,6.17
2024-03-14T02:37:13.919Z,6.03
2024-03-14T02:42:07.653Z,7.23
2024-03-14T02:46:59.868Z,5.60
2024-03-14T02:51:51.984Z,6.43
2024-03-14T02:56:48.633Z,6.50
2024-03-14T03:01:41.867Z,6.47
2024-03-14T03:06:35.054Z,6.03
2024-03-14T03:11:28.646Z,7.70
2024-03-14T03:16:20.689Z,6.53
2024-03-14T03:21:12.886Z,7.97
2024-03-14T03:26:07.740Z,7.97
2024-03-14T03:30:59.822Z,7.67
2024-03-14T03:35:54.636Z,7.83
2024-03-14T03:40:46.829Z,8.27
2024-03-14T03:45:39.109Z,7.60
2024-03-14T03:50:31.360Z,11.90
2024-03-14T03:55:23.390Z,12.07
2024-03-14T04:00:36.817Z,8.73
2024-03-14T04:05:28.963Z,11.03
2024-03-14T04:10:25.344Z,10.70
2024-03-14T04:15:17.632Z,11.03
2024-03-14T04:20:12.744Z,10.57
2024-03-14T04:25:05.155Z,10.43
2024-03-14T04:29:58.467Z,10.70
2024-03-14T04:34:50.471Z,10.40
2024-03-14T04:39:42.645Z,10.77
2024-03-14T04:44:37.032Z,9.93
2024-03-14T04:49:29.054Z,14.20
2024-03-14T04:54:21.486Z,15.13
2024-03-14T04:59:14.253Z,12.50
2024-03-14T05:04:09.809Z,11.47
2024-03-14T05:09:03.070Z,15.30
2024-03-14T05:13:57.928Z,13.33
2024-03-14T05:18:50.259Z,11.13
2024-03-14T05:23:42.792Z,12.40
2024-03-14T05:28:36.910Z,13.57
2024-03-14T05:33:30.073Z,17.33
2024-03-14T05:38:22.313Z,12.63
2024-03-14T05:43:14.624Z,15.20
2024-03-14T05:48:12.373Z,13.97
2024-03-14T05:53:06.625Z,14.23
2024-03-14T05:57:59.198Z,13.57
2024-03-14T06:02:52.938Z,13.40
2024-03-14T06:07:45.933Z,13.47
2024-03-14T06:12:43.491Z,13.53
2024-03-14T06:17:35.580Z,11.60
2024-03-14T06:22:27.922Z,17.77
2024-03-14T06:27:19.959Z,12.30
2024-03-14T06:32:12.781Z,16.80
2024-03-14T06:37:04.963Z,15.20
2024-03-14T06:41:57.158Z,15.33
2024-03-14T06:46:49.361Z,13.70
2024-03-14T06:51:46.045Z,19.57
2024-03-14T06:56:38.679Z,14.83
2024-03-14T07:01:34.088Z,14.67
2024-03-14T07:06:27.640Z,19.23
2024-03-14T07:11:19.799Z,16.07
2024-03-14T07:16:12.050Z,19.27
2024-03-14T07:21:05.612Z,16.00
2024-03-14T07:26:01.312Z,18.67
2024-03-14T07:30:55.897Z,27.73
2024-03-14T07:35:49.946Z,15.97
2024-03-14T07:40:44.386Z,15.17
2024-03-14T07:45:36.768Z,21.47
2024-03-14T07:50:30.127Z,17.27
2024-03-14T07:55:22.627Z,17.23
2024-03-14T08:00:17.249Z,18.03
2024-03-14T08:05:09.873Z,15.77
2024-03-14T08:10:02.268Z,17.20
2024-03-14T08:14:59.987Z,22.73
2024-03-14T08:19:57.242Z,15.27
2024-03-14T08:24:50.992Z,15.17
2024-03-14T08:29:44.560Z,17.70
2024-03-14T08:34:36.713Z,16.47
2024-03-14T08:39:29.710Z,17.53
2024-03-14T08:44:27.567Z,14.37
2024-03-14T08:49:19.820Z,16.33
2024-03-14T08:54:29.733Z,18.97
2024-03-14T08:59:23.712Z,14.90
2024-03-14T09:04:15.747Z,13.63
2024-03-14T09:09:07.837Z,13.13
2024-03-14T09:14:00.433Z,15.53
2024-03-14T09:18:52.469Z,15.50
2024-03-14T09:23:44.666Z,14.90
2024-03-14T09:28:39.767Z,13.63
2024-03-14T09:33:32.517Z,12.80
2024-03-14T09:38:25.096Z,12.77
2024-03-14T09:43:18.134Z,11.30
2024-03-14T09:48:11.705Z,11.47
2024-03-14T09:53:08.228Z,12.87
2024-03-14T09:58:02.732Z,10.67
2024-03-14T10:02:57.011Z,11.23
2024-03-14T10:07:50.859Z,11.63
2024-03-14T10:12:54.500Z,13.53
2024-03-14T10:17:50.698Z,11.93
2024-03-14T10:22:43.003Z,10.80
2024-03-14T10:27:43.226Z,11.57
2024-03-14T10:32:43.373Z,11.20
2024-03-14T10:37:38.490Z,11.57
2024-03-14T10:42:31.825Z,12.40
2024-03-14T10:47:24.045Z,10.10
2024-03-14T10:52:17.795Z,10.37
2024-03-14T10:57:09.982Z,8.77
2024-03-14T11:02:05.355Z,19.10
2024-03-14T11:07:08.966Z,9.10
2024-03-14T11:12:05.901Z,7.20
2024-03-14T11:17:02.162Z,7.60
2024-03-14T11:21:55.487Z,8.07
2024-03-14T11:26:50.835Z,7.90
2024-03-14T11:31:49.031Z,7.53
2024-03-14T11:36:41.513Z,7.60
2024-03-14T11:41:33.825Z,7.43
2024-03-14T11:46:28.028Z,8.57
2024-03-14T11:51:20.552Z,7.43
2024-03-14T11:56:13.021Z,7.80
2024-03-14T12:01:06.179Z,9.07
2024-03-14T12:06:07.611Z,9.47
2024-03-14T12:11:02.224Z,9.20
2024-03-14T12:16:03.510Z,9.03
2024-03-14T12:20:55.764Z,11.20
2024-03-14T12:25:51.346Z,8.93
2024-03-14T12:30:44.605Z,13.97
2024-03-14T12:35:36.813Z,8.60
2024-03-14T12:40:31.178Z,9.20
2024-03-14T12:45:26.779Z,8.70
2024-03-14T12:50:22.156Z,7.30
2024-03-14T12:55:16.244Z,9.67
2024-03-14T13:00:18.996Z,11.40
2024-03-14T13:05:15.412Z,14.97
2024-03-14T13:10:18.547Z,11.27
2024-03-14T13:15:13.231Z,11.77
2024-03-14T13:20:18.547Z,11.53
2024-03-14T13:25:14.199Z,10.70
2024-03-14T13:30:09.193Z,9.87
2024-03-14T13:35:01.667Z,9.80
2024-03-14T13:39:53.685Z,11.27
2024-03-14T13:44:47.422Z,7.27
2024-03-14T13:49:39.580Z,6.30
2024-03-14T13:54:31.766Z,5.97
2024-03-14T13:59:24.222Z,5.63
2024-03-14T14:04:18.382Z,5.73
2024-03-14T14:09:11.082Z,6.07
2024-03-14T14:14:03.466Z,4.73
2024-03-14T14:18:55.658Z,5.10
2024-03-14T14:23:47.845Z,5.63
2024-03-14T14:28:44.851Z,6.27
2024-03-14T14:33:37.172Z,6.20
2024-03-14T14:38:29.392Z,4.67
2024-03-14T14:43:21.564Z,5.50
2024-03-14T14:48:13.725Z,6.67
2024-03-14T14:53:07.358Z,6.40
2024-03-14T14:57:59.547Z,7.43
2024-03-14T15:02:52.029Z,9.27
2024-03-14T15:07:44.065Z,8.27
2024-03-14T15:12:43.464Z,7.63
2024-03-14T15:17:40.232Z,7.00
2024-03-14T15:22:32.867Z,10.40
2024-03-14T15:27:24.961Z,6.37
2024-03-14T15:32:18.515Z,6.50
2024-03-14T15:37:10.695Z,5.50
2024-03-14T15:42:02.789Z,4.87
2024-03-14T15:46:58.412Z,5.97
2024-03-14T15:51:51.363Z,65.97
2024-03-14T15:56:43.410Z,11.23
2024-03-14T16:01:36.615Z,7.77
2024-03-14T16:06:29.548Z,9.80
2024-03-14T16:11:21.948Z,9.97
2024-03-14T16:16:18.466Z,15.43
2024-03-14T16:21:14.606Z,10.73
2024-03-14T16:26:12.117Z,11.73
2024-03-14T16:31:06.632Z,14.50
2024-03-14T16:35:59.679Z,15.83
2024-03-14T16:40:52.921Z,15.70
2024-03-14T16:45:46.429Z,13.43
2024-03-14T16:50:38.555Z,14.23
2024-03-14T16:55:32.780Z,15.90
2024-03-14T17:00:32.592Z,20.07
2024-03-14T17:05:24.871Z,15.33
2024-03-14T17:10:23.078Z,15.70
2024-03-14T17:15:15.306Z,16.47
2024-03-14T17:20:15.482Z,19.07
2024-03-14T17:25:08.514Z,19.80
2024-03-14T17:30:00.674Z,19.93
2024-03-14T17:34:52.836Z,20.37
2024-03-14T17:39:45.348Z,17.73
2024-03-14T17:44:37.599Z,19.87
2024-03-14T17:49:30.036Z,16.87
2024-03-14T17:54:22.681Z,16.27
2024-03-14T17:59:15.314Z,17.80
2024-03-14T18:04:13.733Z,22.67
2024-03-14T18:09:08.969Z,20.73
2024-03-14T18:14:01.054Z,21.43
2024-03-14T18:18:53.260Z,22.30
2024-03-14T18:23:46.475Z,21.03
2024-03-14T18:28:38.549Z,21.27
2024-03-14T18:33:32.347Z,24.43
2024-03-14T18:38:24.600Z,22.90
2024-03-14T18:43:16.866Z,23.13
2024-03-14T18:48:10.246Z,23.37
2024-03-14T18:53:05.446Z,24.43
2024-03-14T18:57:57.960Z,23.83
2024-03-14T19:02:50.340Z,23.30
2024-03-14T19:07:43.573Z,23.37
2024-03-14T19:12:35.793Z,25.97
2024-03-14T19:17:27.960Z,26.63
2024-03-14T19:22:20.140Z,22.83
2024-03-14T19:27:13.236Z,23.67
2024-03-14T19:32:07.080Z,26.57
2024-03-14T19:36:59.672Z,25.70
2024-03-14T19:41:53.482Z,26.73
2024-03-14T19:46:45.763Z,25.57
2024-03-14T19:51:38.195Z,28.37
2024-03-14T19:56:30.280Z,26.47
2024-03-14T20:01:22.309Z,34.60
2024-03-14T20:06:16.299Z,27.20
2024-03-14T20:11:09.137Z,27.47
2024-03-14T20:16:01.424Z,26.13
2024-03-14T20:20:54.291Z,26.37
2024-03-14T20:25:49.072Z,29.63
2024-03-14T20:30:43.174Z,27.60
2024-03-14T20:35:36.218Z,33.03
2024-03-14T20:40:35.300Z,28.47
2024-03-14T20:45:30.245Z,31.83
2024-03-14T20:50:24.835Z,29.47
2024-03-14T20:55:29.970Z,28.70
2024-03-14T21:00:30.995Z,29.17
2024-03-14T21:05:23.342Z,26.33
2024-03-14T21:10:22.012Z,24.97
2024-03-14T21:15:14.137Z,27.00
2024-03-14T21:20:11.337Z,27.03
2024-03-14T21:25:08.006Z,30.87
2024-03-14T21:30:00.291Z,33.93
2024-03-14T21:34:52.586Z,32.10
2024-03-14T21:39:45.238Z,30.43
2024-03-14T21:44:46.351Z,41.93
2024-03-14T21:49:38.543Z,52.03
2024-03-14T21:54:30.530Z,56.93
2024-03-14T21:59:22.608Z,78.03
2024-03-14T22:04:14.725Z,30.00
2024-03-14T22:09:08.860Z,35.23
2024-03-14T22:14:01.754Z,32.27
2024-03-14T22:18:53.935Z,30.10
2024-03-14T22:23:48.470Z,28.20
2024-03-14T22:28:41.109Z,31.47
2024-03-14T22:33:33.249Z,30.63
2024-03-14T22:38:26.051Z,28.03
2024-03-14T22:43:18.057Z,60.80
2024-03-14T22:48:10.339Z,52.10
2024-03-14T22:53:02.628Z,121.50
2024-03-14T22:57:54.981Z,83.07
2024-03-14T23:02:47.502Z,53.10
2024-03-14T23:07:39.517Z,37.30
2024-03-14T23:12:32.464Z,31.90
2024-03-14T23:17:26.137Z,34.40
2024-03-14T23:22:18.226Z,29.23
2024-03-14T23:27:10.433Z,26.00
2024-03-14T23:32:02.468Z,27.27
2024-03-14T23:36:54.568Z,32.63
2024-03-14T23:41:46.860Z,28.13
2024-03-14T23:46:41.832Z,27.63
2024-03-14T23:51:34.516Z,31.33
2024-03-14T23:56:26.839Z,28.20
